sensor_id;sensor_type;location;lat;lon;timestamp;temperature;humidity
54930;DHT22;40833;53.238;6.576;2023-07-16T00:01:04;17.00;99.90
54930;DHT22;40833;53.238;6.576;2023-07-16T00:03:29;16.90;99.90
54930;DHT22;40833;53.238;6.576;2023-07-16T00:05:55;16.90;99.90
54930;DHT22;40833;53.238;6.576;2023-07-16T00:08:22;16.90;99.90
54930;DHT22;40833;53.238;6.576;2023-07-16T00:10:47;16.90;99.90
54930;DHT22;40833;53.238;6.576;2023-07-16T00:13:13;16.80;99.90
54930;DHT22;40833;53.238;6.576;2023-07-16T00:15:39;16.80;99.90
54930;DHT22;40833;53.238;6.576;2023-07-16T00:18:04;16.80;99.90
54930;DHT22;40833;53.238;6.576;2023-07-16T00:20:32;16.70;99.90
54930;DHT22;40833;53.238;6.576;2023-07-16T00:22:58;16.70;99.90
54930;DHT22;40833;53.238;6.576;2023-07-16T00:25:23;16.70;99.90
54930;DHT22;40833;53.238;6.576;2023-07-16T00:27:49;16.70;99.90
54930;DHT22;40833;53.238;6.576;2023-07-16T00:30:15;16.60;99.90
54930;DHT22;40833;53.238;6.576;2023-07-16T00:32:40;16.60;99.90
54930;DHT22;40833;53.238;6.576;2023-07-16T00:35:06;16.60;99.90
54930;DHT22;40833;53.238;6.576;2023-07-16T00:37:33;16.60;99.90
54930;DHT22;40833;53.238;6.576;2023-07-16T00:39:59;16.60;99.90
54930;DHT22;40833;53.238;6.576;2023-07-16T00:42:25;16.50;99.90
54930;DHT22;40833;53.238;6.576;2023-07-16T00:44:50;16.50;99.90
54930;DHT22;40833;53.238;6.576;2023-07-16T00:47:16;16.50;99.90
54930;DHT22;40833;53.238;6.576;2023-07-16T00:49:42;16.40;99.90
54930;DHT22;40833;53.238;6.576;2023-07-16T00:52:14;16.40;99.90
54930;DHT22;40833;53.238;6.576;2023-07-16T00:54:40;16.40;99.90
54930;DHT22;40833;53.238;6.576;2023-07-16T00:57:06;16.40;99.90
54930;DHT22;40833;53.238;6.576;2023-07-16T00:59:33;16.40;99.90
54930;DHT22;40833;53.238;6.576;2023-07-16T01:01:59;16.40;99.90
54930;DHT22;40833;53.238;6.576;2023-07-16T01:04:24;16.40;99.90
54930;DHT22;40833;53.238;6.576;2023-07-16T01:06:52;16.40;99.90
54930;DHT22;40833;53.238;6.576;2023-07-16T01:09:20;15.20;99.90
54930;DHT22;40833;53.238;6.576;2023-07-16T01:11:48;16.40;99.90
54930;DHT22;40833;53.238;6.576;2023-07-16T01:14:18;16.40;99.90
54930;DHT22;40833;53.238;6.576;2023-07-16T01:16:44;16.40;99.90
54930;DHT22;40833;53.238;6.576;2023-07-16T01:19:10;16.40;99.90
54930;DHT22;40833;53.238;6.576;2023-07-16T01:24:35;16.40;99.90
54930;DHT22;40833;53.238;6.576;2023-07-16T01:30:02;16.50;99.90
54930;DHT22;40833;53.238;6.576;2023-07-16T01:32:30;16.50;99.90
54930;DHT22;40833;53.238;6.576;2023-07-16T01:34:57;16.50;99.90
54930;DHT22;40833;53.238;6.576;2023-07-16T01:37:23;16.50;99.90
54930;DHT22;40833;53.238;6.576;2023-07-16T01:39:49;16.50;99.90
54930;DHT22;40833;53.238;6.576;2023-07-16T01:42:15;16.50;99.90
54930;DHT22;40833;53.238;6.576;2023-07-16T01:44:41;16.50;99.90
54930;DHT22;40833;53.238;6.576;2023-07-16T01:47:14;16.50;99.90
54930;DHT22;40833;53.238;6.576;2023-07-16T01:49:40;16.60;99.90
54930;DHT22;40833;53.238;6.576;2023-07-16T01:52:09;16.50;99.90
54930;DHT22;40833;53.238;6.576;2023-07-16T01:54:35;16.50;99.90
54930;DHT22;40833;53.238;6.576;2023-07-16T01:57:01;16.50;99.90
54930;DHT22;40833;53.238;6.576;2023-07-16T01:59:27;16.50;99.90
54930;DHT22;40833;53.238;6.576;2023-07-16T02:01:52;16.50;99.90
54930;DHT22;40833;53.238;6.576;2023-07-16T02:04:18;16.50;99.90
54930;DHT22;40833;53.238;6.576;2023-07-16T02:06:44;16.50;99.90
54930;DHT22;40833;53.238;6.576;2023-07-16T02:09:10;16.50;99.90
54930;DHT22;40833;53.238;6.576;2023-07-16T02:11:36;16.50;99.90
54930;DHT22;40833;53.238;6.576;2023-07-16T02:14:01;16.50;99.90
54930;DHT22;40833;53.238;6.576;2023-07-16T02:16:27;16.40;99.90
54930;DHT22;40833;53.238;6.576;2023-07-16T02:18:53;16.40;99.90
54930;DHT22;40833;53.238;6.576;2023-07-16T02:21:18;16.40;99.90
54930;DHT22;40833;53.238;6.576;2023-07-16T02:23:44;16.30;99.90
54930;DHT22;40833;53.238;6.576;2023-07-16T02:26:09;16.30;99.90
54930;DHT22;40833;53.238;6.576;2023-07-16T02:28:35;16.30;99.90
54930;DHT22;40833;53.238;6.576;2023-07-16T02:31:02;16.30;99.90
54930;DHT22;40833;53.238;6.576;2023-07-16T02:33:28;16.20;99.90
54930;DHT22;40833;53.238;6.576;2023-07-16T02:35:53;16.20;99.90
54930;DHT22;40833;53.238;6.576;2023-07-16T02:38:19;16.20;99.90
54930;DHT22;40833;53.238;6.576;2023-07-16T02:40:46;16.20;99.90
54930;DHT22;40833;53.238;6.576;2023-07-16T02:43:12;16.20;99.90
54930;DHT22;40833;53.238;6.576;2023-07-16T02:45:38;16.20;99.90
54930;DHT22;40833;53.238;6.576;2023-07-16T02:48:05;16.20;99.90
54930;DHT22;40833;53.238;6.576;2023-07-16T02:50:38;16.20;99.90
54930;DHT22;40833;53.238;6.576;2023-07-16T02:53:05;16.20;99.90
54930;DHT22;40833;53.238;6.576;2023-07-16T02:55:31;16.20;99.90
54930;DHT22;40833;53.238;6.576;2023-07-16T02:57:57;16.20;99.90
54930;DHT22;40833;53.238;6.576;2023-07-16T03:00:23;16.20;99.90
54930;DHT22;40833;53.238;6.576;2023-07-16T03:02:49;16.20;99.90
54930;DHT22;40833;53.238;6.576;2023-07-16T03:05:16;16.20;99.90
54930;DHT22;40833;53.238;6.576;2023-07-16T03:07:42;16.30;99.90
54930;DHT22;40833;53.238;6.576;2023-07-16T03:10:08;16.30;99.90
54930;DHT22;40833;53.238;6.576;2023-07-16T03:12:34;16.30;99.90
54930;DHT22;40833;53.238;6.576;2023-07-16T03:15:00;16.30;99.90
54930;DHT22;40833;53.238;6.576;2023-07-16T03:17:25;16.30;99.90
54930;DHT22;40833;53.238;6.576;2023-07-16T03:19:51;16.30;99.90
54930;DHT22;40833;53.238;6.576;2023-07-16T03:22:17;16.30;99.90
54930;DHT22;40833;53.238;6.576;2023-07-16T03:24:42;16.30;99.90
54930;DHT22;40833;53.238;6.576;2023-07-16T03:27:08;16.30;99.90
54930;DHT22;40833;53.238;6.576;2023-07-16T03:29:34;16.30;99.90
54930;DHT22;40833;53.238;6.576;2023-07-16T03:32:00;16.30;99.90
54930;DHT22;40833;53.238;6.576;2023-07-16T03:34:25;16.30;99.90
54930;DHT22;40833;53.238;6.576;2023-07-16T03:36:51;16.30;99.90
54930;DHT22;40833;53.238;6.576;2023-07-16T03:39:17;16.40;99.90
54930;DHT22;40833;53.238;6.576;2023-07-16T03:44:09;16.20;99.90
54930;DHT22;40833;53.238;6.576;2023-07-16T03:46:35;16.20;99.90
54930;DHT22;40833;53.238;6.576;2023-07-16T03:49:01;16.30;99.90
54930;DHT22;40833;53.238;6.576;2023-07-16T03:51:26;16.20;99.90
54930;DHT22;40833;53.238;6.576;2023-07-16T03:53:52;16.20;99.90
54930;DHT22;40833;53.238;6.576;2023-07-16T03:56:18;16.20;99.90
54930;DHT22;40833;53.238;6.576;2023-07-16T03:58:43;16.20;99.90
54930;DHT22;40833;53.238;6.576;2023-07-16T04:01:09;16.30;99.90
54930;DHT22;40833;53.238;6.576;2023-07-16T04:03:35;16.20;99.90
54930;DHT22;40833;53.238;6.576;2023-07-16T04:06:05;16.20;99.90
54930;DHT22;40833;53.238;6.576;2023-07-16T04:08:31;16.20;99.90
54930;DHT22;40833;53.238;6.576;2023-07-16T04:10:57;16.20;99.90
54930;DHT22;40833;53.238;6.576;2023-07-16T04:13:23;16.20;99.90
54930;DHT22;40833;53.238;6.576;2023-07-16T04:15:49;16.20;99.90
54930;DHT22;40833;53.238;6.576;2023-07-16T04:20:41;16.20;99.90
54930;DHT22;40833;53.238;6.576;2023-07-16T04:23:06;16.20;99.90
54930;DHT22;40833;53.238;6.576;2023-07-16T04:25:32;16.30;99.90
54930;DHT22;40833;53.238;6.576;2023-07-16T04:27:58;16.30;99.90
54930;DHT22;40833;53.238;6.576;2023-07-16T04:30:23;16.30;99.90
54930;DHT22;40833;53.238;6.576;2023-07-16T04:32:49;16.30;99.90
54930;DHT22;40833;53.238;6.576;2023-07-16T04:35:15;16.30;99.90
54930;DHT22;40833;53.238;6.576;2023-07-16T04:37:40;16.30;99.90
54930;DHT22;40833;53.238;6.576;2023-07-16T04:40:07;16.40;99.90
54930;DHT22;40833;53.238;6.576;2023-07-16T04:42:33;16.40;99.90
54930;DHT22;40833;53.238;6.576;2023-07-16T04:44:59;16.40;99.90
54930;DHT22;40833;53.238;6.576;2023-07-16T04:47:24;16.40;99.90
54930;DHT22;40833;53.238;6.576;2023-07-16T04:49:50;16.40;99.90
54930;DHT22;40833;53.238;6.576;2023-07-16T04:52:16;16.50;99.90
54930;DHT22;40833;53.238;6.576;2023-07-16T04:54:41;16.50;99.90
54930;DHT22;40833;53.238;6.576;2023-07-16T04:57:07;16.50;99.90
54930;DHT22;40833;53.238;6.576;2023-07-16T04:59:34;16.50;99.90
54930;DHT22;40833;53.238;6.576;2023-07-16T05:02:01;16.60;99.90
54930;DHT22;40833;53.238;6.576;2023-07-16T05:04:27;16.60;99.90
54930;DHT22;40833;53.238;6.576;2023-07-16T05:06:53;16.60;99.90
54930;DHT22;40833;53.238;6.576;2023-07-16T05:09:18;16.60;99.90
54930;DHT22;40833;53.238;6.576;2023-07-16T05:11:45;16.70;99.90
54930;DHT22;40833;53.238;6.576;2023-07-16T05:14:11;16.70;99.90
54930;DHT22;40833;53.238;6.576;2023-07-16T05:16:37;16.80;99.90
54930;DHT22;40833;53.238;6.576;2023-07-16T05:19:02;16.80;99.90
54930;DHT22;40833;53.238;6.576;2023-07-16T05:21:28;17.00;99.90
54930;DHT22;40833;53.238;6.576;2023-07-16T05:23:54;17.00;99.90
54930;DHT22;40833;53.238;6.576;2023-07-16T05:26:19;17.10;99.90
54930;DHT22;40833;53.238;6.576;2023-07-16T05:28:45;17.00;99.90
54930;DHT22;40833;53.238;6.576;2023-07-16T05:31:10;17.10;99.90
54930;DHT22;40833;53.238;6.576;2023-07-16T05:33:36;17.10;99.90
54930;DHT22;40833;53.238;6.576;2023-07-16T05:36:02;17.20;99.90
54930;DHT22;40833;53.238;6.576;2023-07-16T05:38:28;17.40;99.90
54930;DHT22;40833;53.238;6.576;2023-07-16T05:40:53;17.50;99.90
54930;DHT22;40833;53.238;6.576;2023-07-16T05:43:19;17.60;99.90
54930;DHT22;40833;53.238;6.576;2023-07-16T05:45:44;17.70;99.90
54930;DHT22;40833;53.238;6.576;2023-07-16T05:48:10;17.80;99.90
54930;DHT22;40833;53.238;6.576;2023-07-16T05:50:37;17.80;99.90
54930;DHT22;40833;53.238;6.576;2023-07-16T05:53:02;17.80;99.90
54930;DHT22;40833;53.238;6.576;2023-07-16T05:55:28;17.80;99.90
54930;DHT22;40833;53.238;6.576;2023-07-16T05:57:54;17.90;99.90
54930;DHT22;40833;53.238;6.576;2023-07-16T06:00:19;18.00;99.90
54930;DHT22;40833;53.238;6.576;2023-07-16T06:02:45;18.10;99.90
54930;DHT22;40833;53.238;6.576;2023-07-16T06:05:11;18.10;99.90
54930;DHT22;40833;53.238;6.576;2023-07-16T06:07:36;18.10;99.90
54930;DHT22;40833;53.238;6.576;2023-07-16T06:10:02;18.20;99.90
54930;DHT22;40833;53.238;6.576;2023-07-16T06:12:28;18.30;99.90
54930;DHT22;40833;53.238;6.576;2023-07-16T06:14:54;18.40;99.90
54930;DHT22;40833;53.238;6.576;2023-07-16T06:17:19;18.40;99.90
54930;DHT22;40833;53.238;6.576;2023-07-16T06:19:45;18.40;99.90
54930;DHT22;40833;53.238;6.576;2023-07-16T06:22:10;18.30;99.90
54930;DHT22;40833;53.238;6.576;2023-07-16T06:24:36;18.30;99.90
54930;DHT22;40833;53.238;6.576;2023-07-16T06:27:02;18.30;99.90
54930;DHT22;40833;53.238;6.576;2023-07-16T06:29:27;18.40;99.90
54930;DHT22;40833;53.238;6.576;2023-07-16T06:31:57;18.40;99.90
54930;DHT22;40833;53.238;6.576;2023-07-16T06:34:24;18.40;99.90
54930;DHT22;40833;53.238;6.576;2023-07-16T06:36:49;18.30;99.90
54930;DHT22;40833;53.238;6.576;2023-07-16T06:39:15;18.30;99.90
54930;DHT22;40833;53.238;6.576;2023-07-16T06:41:41;18.30;99.90
54930;DHT22;40833;53.238;6.576;2023-07-16T06:44:06;18.30;99.90
54930;DHT22;40833;53.238;6.576;2023-07-16T06:46:32;18.40;99.90
54930;DHT22;40833;53.238;6.576;2023-07-16T06:48:58;18.50;99.90
54930;DHT22;40833;53.238;6.576;2023-07-16T06:51:23;18.50;99.90
54930;DHT22;40833;53.238;6.576;2023-07-16T06:53:49;18.50;99.90
54930;DHT22;40833;53.238;6.576;2023-07-16T06:56:15;18.60;99.90
54930;DHT22;40833;53.238;6.576;2023-07-16T06:58:41;18.70;99.90
54930;DHT22;40833;53.238;6.576;2023-07-16T07:01:06;18.70;99.90
54930;DHT22;40833;53.238;6.576;2023-07-16T07:03:32;18.80;99.90
54930;DHT22;40833;53.238;6.576;2023-07-16T07:06:03;18.70;99.90
54930;DHT22;40833;53.238;6.576;2023-07-16T07:08:29;18.70;99.90
54930;DHT22;40833;53.238;6.576;2023-07-16T07:10:55;18.70;99.90
54930;DHT22;40833;53.238;6.576;2023-07-16T07:13:21;18.80;99.90
54930;DHT22;40833;53.238;6.576;2023-07-16T07:15:47;18.90;99.90
54930;DHT22;40833;53.238;6.576;2023-07-16T07:18:12;19.00;99.90
54930;DHT22;40833;53.238;6.576;2023-07-16T07:20:39;19.10;99.90
54930;DHT22;40833;53.238;6.576;2023-07-16T07:23:05;19.20;99.90
54930;DHT22;40833;53.238;6.576;2023-07-16T07:25:31;19.30;99.90
54930;DHT22;40833;53.238;6.576;2023-07-16T07:27:57;19.30;99.90
54930;DHT22;40833;53.238;6.576;2023-07-16T07:30:23;19.40;99.90
54930;DHT22;40833;53.238;6.576;2023-07-16T07:32:48;19.50;99.90
54930;DHT22;40833;53.238;6.576;2023-07-16T07:35:14;19.50;99.90
54930;DHT22;40833;53.238;6.576;2023-07-16T07:37:40;19.30;99.90
54930;DHT22;40833;53.238;6.576;2023-07-16T07:40:06;19.20;99.90
54930;DHT22;40833;53.238;6.576;2023-07-16T07:42:33;19.00;99.90
54930;DHT22;40833;53.238;6.576;2023-07-16T07:44:58;18.80;99.90
54930;DHT22;40833;53.238;6.576;2023-07-16T07:47:24;18.60;99.90
54930;DHT22;40833;53.238;6.576;2023-07-16T07:49:52;18.70;99.90
54930;DHT22;40833;53.238;6.576;2023-07-16T07:52:17;18.80;99.90
54930;DHT22;40833;53.238;6.576;2023-07-16T07:54:43;18.80;99.90
54930;DHT22;40833;53.238;6.576;2023-07-16T07:57:09;18.90;99.90
54930;DHT22;40833;53.238;6.576;2023-07-16T07:59:34;18.90;99.90
54930;DHT22;40833;53.238;6.576;2023-07-16T08:02:00;18.90;99.90
54930;DHT22;40833;53.238;6.576;2023-07-16T08:04:29;18.90;99.90
54930;DHT22;40833;53.238;6.576;2023-07-16T08:06:56;18.90;99.90
54930;DHT22;40833;53.238;6.576;2023-07-16T08:09:21;18.90;99.90
54930;DHT22;40833;53.238;6.576;2023-07-16T08:11:47;19.00;99.90
54930;DHT22;40833;53.238;6.576;2023-07-16T08:14:13;19.30;99.90
54930;DHT22;40833;53.238;6.576;2023-07-16T08:16:38;19.40;99.90
54930;DHT22;40833;53.238;6.576;2023-07-16T08:19:04;19.40;99.90
54930;DHT22;40833;53.238;6.576;2023-07-16T08:21:29;19.40;99.90
54930;DHT22;40833;53.238;6.576;2023-07-16T08:23:55;19.40;99.90
54930;DHT22;40833;53.238;6.576;2023-07-16T08:26:21;19.40;99.90
54930;DHT22;40833;53.238;6.576;2023-07-16T08:28:46;19.30;99.90
54930;DHT22;40833;53.238;6.576;2023-07-16T08:31:12;19.20;99.90
54930;DHT22;40833;53.238;6.576;2023-07-16T08:33:38;19.00;99.90
54930;DHT22;40833;53.238;6.576;2023-07-16T08:36:04;18.90;99.90
54930;DHT22;40833;53.238;6.576;2023-07-16T08:38:30;18.80;99.90
54930;DHT22;40833;53.238;6.576;2023-07-16T08:40:56;18.80;99.90
54930;DHT22;40833;53.238;6.576;2023-07-16T08:43:22;18.90;99.90
54930;DHT22;40833;53.238;6.576;2023-07-16T08:45:49;18.60;99.90
54930;DHT22;40833;53.238;6.576;2023-07-16T08:48:16;18.60;99.90
54930;DHT22;40833;53.238;6.576;2023-07-16T08:50:46;18.60;99.90
54930;DHT22;40833;53.238;6.576;2023-07-16T08:53:17;18.60;99.90
54930;DHT22;40833;53.238;6.576;2023-07-16T08:55:44;18.60;99.90
54930;DHT22;40833;53.238;6.576;2023-07-16T08:58:13;18.70;99.90
54930;DHT22;40833;53.238;6.576;2023-07-16T09:00:46;18.90;99.90
54930;DHT22;40833;53.238;6.576;2023-07-16T09:03:14;19.10;99.90
54930;DHT22;40833;53.238;6.576;2023-07-16T09:05:42;19.50;99.90
54930;DHT22;40833;53.238;6.576;2023-07-16T09:08:09;19.70;99.90
54930;DHT22;40833;53.238;6.576;2023-07-16T09:10:35;20.00;99.90
54930;DHT22;40833;53.238;6.576;2023-07-16T09:13:01;20.20;99.90
54930;DHT22;40833;53.238;6.576;2023-07-16T09:15:29;20.30;99.90
54930;DHT22;40833;53.238;6.576;2023-07-16T09:17:55;20.50;99.90
54930;DHT22;40833;53.238;6.576;2023-07-16T09:20:21;20.50;99.90
54930;DHT22;40833;53.238;6.576;2023-07-16T09:22:49;20.60;99.90
54930;DHT22;40833;53.238;6.576;2023-07-16T09:25:15;20.70;99.90
54930;DHT22;40833;53.238;6.576;2023-07-16T09:27:41;20.70;99.90
54930;DHT22;40833;53.238;6.576;2023-07-16T09:30:07;20.70;99.90
54930;DHT22;40833;53.238;6.576;2023-07-16T09:32:40;20.70;99.90
54930;DHT22;40833;53.238;6.576;2023-07-16T09:35:12;20.70;99.90
54930;DHT22;40833;53.238;6.576;2023-07-16T09:37:37;20.70;99.90
54930;DHT22;40833;53.238;6.576;2023-07-16T09:40:08;20.70;99.90
54930;DHT22;40833;53.238;6.576;2023-07-16T09:42:40;20.90;99.90
54930;DHT22;40833;53.238;6.576;2023-07-16T09:45:07;21.00;99.90
54930;DHT22;40833;53.238;6.576;2023-07-16T09:47:34;21.20;99.90
54930;DHT22;40833;53.238;6.576;2023-07-16T09:50:01;21.40;99.90
54930;DHT22;40833;53.238;6.576;2023-07-16T09:52:27;21.50;99.90
54930;DHT22;40833;53.238;6.576;2023-07-16T09:54:55;21.70;99.90
54930;DHT22;40833;53.238;6.576;2023-07-16T09:57:23;21.90;99.90
54930;DHT22;40833;53.238;6.576;2023-07-16T09:59:51;22.00;99.90
54930;DHT22;40833;53.238;6.576;2023-07-16T10:02:18;21.80;99.90
54930;DHT22;40833;53.238;6.576;2023-07-16T10:04:45;21.80;99.90
54930;DHT22;40833;53.238;6.576;2023-07-16T10:07:24;21.70;99.90
54930;DHT22;40833;53.238;6.576;2023-07-16T10:09:55;21.90;99.90
54930;DHT22;40833;53.238;6.576;2023-07-16T10:12:26;21.80;99.90
54930;DHT22;40833;53.238;6.576;2023-07-16T10:14:53;21.70;99.90
54930;DHT22;40833;53.238;6.576;2023-07-16T10:17:26;21.50;99.90
54930;DHT22;40833;53.238;6.576;2023-07-16T10:20:09;21.60;99.90
54930;DHT22;40833;53.238;6.576;2023-07-16T10:25:26;21.60;99.90
54930;DHT22;40833;53.238;6.576;2023-07-16T10:27:53;21.60;99.90
54930;DHT22;40833;53.238;6.576;2023-07-16T10:30:20;21.50;99.90
54930;DHT22;40833;53.238;6.576;2023-07-16T10:32:46;21.60;99.90
54930;DHT22;40833;53.238;6.576;2023-07-16T10:35:12;21.70;99.90
54930;DHT22;40833;53.238;6.576;2023-07-16T10:37:39;21.80;99.90
54930;DHT22;40833;53.238;6.576;2023-07-16T10:40:10;21.80;99.90
54930;DHT22;40833;53.238;6.576;2023-07-16T10:42:36;21.70;99.90
54930;DHT22;40833;53.238;6.576;2023-07-16T10:45:04;21.50;99.90
54930;DHT22;40833;53.238;6.576;2023-07-16T10:47:34;21.40;99.90
54930;DHT22;40833;53.238;6.576;2023-07-16T10:50:00;21.10;99.90
54930;DHT22;40833;53.238;6.576;2023-07-16T10:52:28;21.10;99.90
54930;DHT22;40833;53.238;6.576;2023-07-16T10:54:54;21.20;99.90
54930;DHT22;40833;53.238;6.576;2023-07-16T10:57:23;21.50;99.90
54930;DHT22;40833;53.238;6.576;2023-07-16T10:59:50;21.90;99.90
54930;DHT22;40833;53.238;6.576;2023-07-16T11:02:17;22.10;99.90
54930;DHT22;40833;53.238;6.576;2023-07-16T11:04:43;22.10;99.90
54930;DHT22;40833;53.238;6.576;2023-07-16T11:07:11;22.10;99.90
54930;DHT22;40833;53.238;6.576;2023-07-16T11:09:57;22.30;99.90
54930;DHT22;40833;53.238;6.576;2023-07-16T11:12:24;22.50;99.90
54930;DHT22;40833;53.238;6.576;2023-07-16T11:14:51;22.60;99.90
54930;DHT22;40833;53.238;6.576;2023-07-16T11:17:19;22.50;99.90
54930;DHT22;40833;53.238;6.576;2023-07-16T11:19:48;22.40;99.90
54930;DHT22;40833;53.238;6.576;2023-07-16T11:22:14;22.40;99.90
54930;DHT22;40833;53.238;6.576;2023-07-16T11:24:45;22.40;99.90
54930;DHT22;40833;53.238;6.576;2023-07-16T11:27:16;22.40;99.90
54930;DHT22;40833;53.238;6.576;2023-07-16T11:29:46;22.30;99.90
54930;DHT22;40833;53.238;6.576;2023-07-16T11:32:12;22.30;99.90
54930;DHT22;40833;53.238;6.576;2023-07-16T11:34:38;22.10;99.90
54930;DHT22;40833;53.238;6.576;2023-07-16T11:37:07;21.90;99.90
54930;DHT22;40833;53.238;6.576;2023-07-16T11:39:34;21.70;99.90
54930;DHT22;40833;53.238;6.576;2023-07-16T11:42:02;21.60;99.90
54930;DHT22;40833;53.238;6.576;2023-07-16T11:44:33;21.50;99.90
54930;DHT22;40833;53.238;6.576;2023-07-16T11:46:59;21.70;99.90
54930;DHT22;40833;53.238;6.576;2023-07-16T11:49:24;21.90;99.90
54930;DHT22;40833;53.238;6.576;2023-07-16T11:51:50;21.90;99.90
54930;DHT22;40833;53.238;6.576;2023-07-16T11:54:16;21.90;99.90
54930;DHT22;40833;53.238;6.576;2023-07-16T11:56:41;21.70;99.90
54930;DHT22;40833;53.238;6.576;2023-07-16T11:59:07;21.50;99.90
54930;DHT22;40833;53.238;6.576;2023-07-16T12:01:33;21.30;99.90
54930;DHT22;40833;53.238;6.576;2023-07-16T12:03:58;21.20;99.90
54930;DHT22;40833;53.238;6.576;2023-07-16T12:06:24;21.10;99.90
54930;DHT22;40833;53.238;6.576;2023-07-16T12:08:50;21.00;99.90
54930;DHT22;40833;53.238;6.576;2023-07-16T12:11:15;20.90;99.90
54930;DHT22;40833;53.238;6.576;2023-07-16T12:13:41;20.80;99.90
54930;DHT22;40833;53.238;6.576;2023-07-16T12:16:07;20.90;99.90
54930;DHT22;40833;53.238;6.576;2023-07-16T12:18:32;21.10;99.90
54930;DHT22;40833;53.238;6.576;2023-07-16T12:20:58;22.00;99.90
54930;DHT22;40833;53.238;6.576;2023-07-16T12:23:24;22.00;99.90
54930;DHT22;40833;53.238;6.576;2023-07-16T12:25:50;21.80;99.90
54930;DHT22;40833;53.238;6.576;2023-07-16T12:28:15;21.90;99.90
54930;DHT22;40833;53.238;6.576;2023-07-16T12:30:41;21.80;99.90
54930;DHT22;40833;53.238;6.576;2023-07-16T12:33:07;21.70;99.90
54930;DHT22;40833;53.238;6.576;2023-07-16T12:35:32;21.50;99.90
54930;DHT22;40833;53.238;6.576;2023-07-16T12:37:58;21.50;99.90
54930;DHT22;40833;53.238;6.576;2023-07-16T12:40:25;21.60;99.90
54930;DHT22;40833;53.238;6.576;2023-07-16T12:42:51;21.60;99.90
54930;DHT22;40833;53.238;6.576;2023-07-16T12:45:16;21.60;99.90
54930;DHT22;40833;53.238;6.576;2023-07-16T12:47:42;21.70;99.90
54930;DHT22;40833;53.238;6.576;2023-07-16T12:50:08;21.70;99.90
54930;DHT22;40833;53.238;6.576;2023-07-16T12:52:34;21.70;99.90
54930;DHT22;40833;53.238;6.576;2023-07-16T12:54:59;21.70;99.90
54930;DHT22;40833;53.238;6.576;2023-07-16T12:57:25;21.70;99.90
54930;DHT22;40833;53.238;6.576;2023-07-16T12:59:50;21.80;99.90
54930;DHT22;40833;53.238;6.576;2023-07-16T13:02:16;21.80;99.90
54930;DHT22;40833;53.238;6.576;2023-07-16T13:04:42;21.90;99.90
54930;DHT22;40833;53.238;6.576;2023-07-16T13:07:08;21.70;99.90
54930;DHT22;40833;53.238;6.576;2023-07-16T13:09:34;21.50;99.90
54930;DHT22;40833;53.238;6.576;2023-07-16T13:11:59;21.30;99.90
54930;DHT22;40833;53.238;6.576;2023-07-16T13:14:26;21.20;99.90
54930;DHT22;40833;53.238;6.576;2023-07-16T13:16:51;21.10;99.90
54930;DHT22;40833;53.238;6.576;2023-07-16T13:19:17;21.20;99.90
54930;DHT22;40833;53.238;6.576;2023-07-16T13:21:43;21.00;99.90
54930;DHT22;40833;53.238;6.576;2023-07-16T13:24:08;21.20;99.90
54930;DHT22;40833;53.238;6.576;2023-07-16T13:26:34;21.20;99.90
54930;DHT22;40833;53.238;6.576;2023-07-16T13:29:00;21.20;99.90
54930;DHT22;40833;53.238;6.576;2023-07-16T13:31:26;21.50;99.90
54930;DHT22;40833;53.238;6.576;2023-07-16T13:33:51;21.80;99.90
54930;DHT22;40833;53.238;6.576;2023-07-16T13:36:17;22.00;99.90
54930;DHT22;40833;53.238;6.576;2023-07-16T13:47:17;22.30;99.90
54930;DHT22;40833;53.238;6.576;2023-07-16T13:49:43;23.40;99.90
54930;DHT22;40833;53.238;6.576;2023-07-16T14:00:40;23.50;99.90
54930;DHT22;40833;53.238;6.576;2023-07-16T14:03:06;23.70;99.90
54930;DHT22;40833;53.238;6.576;2023-07-16T14:05:32;23.40;99.90
54930;DHT22;40833;53.238;6.576;2023-07-16T14:10:29;23.30;99.90
54930;DHT22;40833;53.238;6.576;2023-07-16T14:12:54;23.30;99.90
54930;DHT22;40833;53.238;6.576;2023-07-16T14:15:20;23.20;99.90
54930;DHT22;40833;53.238;6.576;2023-07-16T14:17:46;23.30;99.90
54930;DHT22;40833;53.238;6.576;2023-07-16T14:20:12;23.30;99.90
54930;DHT22;40833;53.238;6.576;2023-07-16T14:22:37;23.30;99.90
54930;DHT22;40833;53.238;6.576;2023-07-16T14:25:03;23.40;99.90
54930;DHT22;40833;53.238;6.576;2023-07-16T14:27:29;23.60;99.90
54930;DHT22;40833;53.238;6.576;2023-07-16T14:29:54;23.70;99.90
54930;DHT22;40833;53.238;6.576;2023-07-16T14:32:20;23.70;99.90
54930;DHT22;40833;53.238;6.576;2023-07-16T14:34:46;23.60;99.90
54930;DHT22;40833;53.238;6.576;2023-07-16T14:37:11;23.60;99.10
54930;DHT22;40833;53.238;6.576;2023-07-16T14:40:27;23.70;98.70
54930;DHT22;40833;53.238;6.576;2023-07-16T14:45:25;23.80;98.90
54930;DHT22;40833;53.238;6.576;2023-07-16T14:50:22;24.20;98.50
54930;DHT22;40833;53.238;6.576;2023-07-16T14:52:49;24.70;98.50
54930;DHT22;40833;53.238;6.576;2023-07-16T14:55:14;24.70;97.60
54930;DHT22;40833;53.238;6.576;2023-07-16T14:57:40;24.80;97.60
54930;DHT22;40833;53.238;6.576;2023-07-16T15:03:25;25.00;97.30
54930;DHT22;40833;53.238;6.576;2023-07-16T15:05:56;24.80;96.60
54930;DHT22;40833;53.238;6.576;2023-07-16T15:08:23;24.60;96.70
54930;DHT22;40833;53.238;6.576;2023-07-16T15:10:48;24.50;96.80
54930;DHT22;40833;53.238;6.576;2023-07-16T15:13:14;24.40;97.00
54930;DHT22;40833;53.238;6.576;2023-07-16T15:15:40;24.40;96.70
54930;DHT22;40833;53.238;6.576;2023-07-16T15:18:06;24.20;96.50
54930;DHT22;40833;53.238;6.576;2023-07-16T15:20:31;23.90;96.50
54930;DHT22;40833;53.238;6.576;2023-07-16T15:22:57;23.60;97.20
54930;DHT22;40833;53.238;6.576;2023-07-16T15:25:23;23.40;97.20
54930;DHT22;40833;53.238;6.576;2023-07-16T15:27:49;23.30;97.10
54930;DHT22;40833;53.238;6.576;2023-07-16T15:30:15;23.30;97.60
54930;DHT22;40833;53.238;6.576;2023-07-16T15:32:41;23.60;98.00
54930;DHT22;40833;53.238;6.576;2023-07-16T15:35:07;23.80;97.60
54930;DHT22;40833;53.238;6.576;2023-07-16T15:37:33;23.80;97.20
54930;DHT22;40833;53.238;6.576;2023-07-16T15:39:58;23.60;97.00
54930;DHT22;40833;53.238;6.576;2023-07-16T15:42:24;23.40;97.30
54930;DHT22;40833;53.238;6.576;2023-07-16T15:48:51;23.20;97.60
54930;DHT22;40833;53.238;6.576;2023-07-16T15:51:17;22.80;97.90
54930;DHT22;40833;53.238;6.576;2023-07-16T15:53:43;22.50;97.90
54930;DHT22;40833;53.238;6.576;2023-07-16T15:56:12;22.50;98.10
54930;DHT22;40833;53.238;6.576;2023-07-16T15:58:38;22.70;99.90
54930;DHT22;40833;53.238;6.576;2023-07-16T16:01:04;22.50;98.40
54930;DHT22;40833;53.238;6.576;2023-07-16T16:03:31;22.70;98.20
54930;DHT22;40833;53.238;6.576;2023-07-16T16:05:57;22.90;97.80
54930;DHT22;40833;53.238;6.576;2023-07-16T16:08:22;23.10;97.70
54930;DHT22;40833;53.238;6.576;2023-07-16T16:10:50;23.20;97.20